IE-0025 weather

The Forge Airstrip
County Tipperary, Ireland

Public forecast

Using degrees Celsius for public forecast. Weather courtesy of forecast.io.

METAR (pilot weather report)

Closest report is Shannon Airport, 29.3 nm (54.4 km) WSW. Retrieved 2019/06/17 22:30 UTC (0 seconds ago):

EINN 172230Z 24005KT 9999 FEW016 12/10 Q1013 NOSIG

TAF (pilot weather forecast)

Closest forecast is Shannon Airport, 29.3 nm (54.4 km) WSW. Retrieved 2019/06/17 18:11 UTC (4 hours ago):

TAF EINN 171700Z 1718/1818 25012KT 9999 FEW020 BECMG 1722/1724 19005KT PROB30 TEMPO 1800/1805 4000 BR BECMG 1811/1813 28010KT